sensor_id;sensor_type;location;lat;lon;timestamp;P1;durP1;ratioP1;P2;durP2;ratioP2
68072;SDS011;54862;51.502;7.446;2023-03-22T00:01:07;11.77;;;4.30;;
68072;SDS011;54862;51.502;7.446;2023-03-22T00:03:33;9.20;;;3.88;;
68072;SDS011;54862;51.502;7.446;2023-03-22T00:06:00;10.82;;;4.25;;
68072;SDS011;54862;51.502;7.446;2023-03-22T00:08:26;11.48;;;4.47;;
68072;SDS011;54862;51.502;7.446;2023-03-22T00:10:51;9.05;;;4.60;;
68072;SDS011;54862;51.502;7.446;2023-03-22T00:13:17;9.23;;;4.05;;
68072;SDS011;54862;51.502;7.446;2023-03-22T00:15:43;11.38;;;4.53;;
68072;SDS011;54862;51.502;7.446;2023-03-22T00:18:12;9.32;;;4.22;;
68072;SDS011;54862;51.502;7.446;2023-03-22T00:20:39;10.30;;;4.20;;
68072;SDS011;54862;51.502;7.446;2023-03-22T00:23:11;11.02;;;4.47;;
68072;SDS011;54862;51.502;7.446;2023-03-22T00:25:37;9.27;;;3.95;;
68072;SDS011;54862;51.502;7.446;2023-03-22T00:28:03;10.70;;;4.40;;
68072;SDS011;54862;51.502;7.446;2023-03-22T00:30:29;9.88;;;4.30;;
68072;SDS011;54862;51.502;7.446;2023-03-22T00:32:55;9.52;;;4.38;;
68072;SDS011;54862;51.502;7.446;2023-03-22T00:35:21;8.85;;;4.30;;
68072;SDS011;54862;51.502;7.446;2023-03-22T00:37:47;11.38;;;5.15;;
68072;SDS011;54862;51.502;7.446;2023-03-22T00:40:14;8.88;;;4.55;;
68072;SDS011;54862;51.502;7.446;2023-03-22T00:42:41;8.77;;;4.07;;
68072;SDS011;54862;51.502;7.446;2023-03-22T00:45:07;10.98;;;4.40;;
68072;SDS011;54862;51.502;7.446;2023-03-22T00:47:34;12.95;;;4.68;;
68072;SDS011;54862;51.502;7.446;2023-03-22T00:50:00;9.10;;;4.63;;
68072;SDS011;54862;51.502;7.446;2023-03-22T00:52:27;10.77;;;4.88;;
68072;SDS011;54862;51.502;7.446;2023-03-22T00:54:53;7.72;;;4.20;;
68072;SDS011;54862;51.502;7.446;2023-03-22T00:57:20;8.25;;;4.20;;
68072;SDS011;54862;51.502;7.446;2023-03-22T00:59:46;10.00;;;4.35;;
68072;SDS011;54862;51.502;7.446;2023-03-22T01:02:12;9.60;;;4.35;;
68072;SDS011;54862;51.502;7.446;2023-03-22T01:04:38;11.60;;;4.32;;
68072;SDS011;54862;51.502;7.446;2023-03-22T01:07:14;9.43;;;4.47;;
68072;SDS011;54862;51.502;7.446;2023-03-22T01:09:45;11.30;;;4.55;;
68072;SDS011;54862;51.502;7.446;2023-03-22T01:12:12;9.30;;;4.45;;
68072;SDS011;54862;51.502;7.446;2023-03-22T01:14:38;9.38;;;4.40;;
68072;SDS011;54862;51.502;7.446;2023-03-22T01:17:04;11.32;;;4.78;;
68072;SDS011;54862;51.502;7.446;2023-03-22T01:19:31;11.75;;;5.25;;
68072;SDS011;54862;51.502;7.446;2023-03-22T01:21:57;9.57;;;4.75;;
68072;SDS011;54862;51.502;7.446;2023-03-22T01:24:23;10.18;;;4.47;;
68072;SDS011;54862;51.502;7.446;2023-03-22T01:26:49;12.00;;;5.75;;
68072;SDS011;54862;51.502;7.446;2023-03-22T01:29:15;11.55;;;5.00;;
68072;SDS011;54862;51.502;7.446;2023-03-22T01:31:41;10.45;;;5.07;;
68072;SDS011;54862;51.502;7.446;2023-03-22T01:34:08;11.05;;;4.70;;
68072;SDS011;54862;51.502;7.446;2023-03-22T01:36:34;12.63;;;5.40;;
68072;SDS011;54862;51.502;7.446;2023-03-22T01:39:00;9.55;;;4.78;;
68072;SDS011;54862;51.502;7.446;2023-03-22T01:41:27;10.98;;;5.10;;
68072;SDS011;54862;51.502;7.446;2023-03-22T01:46:39;9.60;;;5.03;;
68072;SDS011;54862;51.502;7.446;2023-03-22T01:49:05;11.32;;;5.07;;
68072;SDS011;54862;51.502;7.446;2023-03-22T01:51:33;10.05;;;4.80;;
68072;SDS011;54862;51.502;7.446;2023-03-22T01:54:00;9.90;;;5.05;;
68072;SDS011;54862;51.502;7.446;2023-03-22T01:56:29;12.65;;;5.28;;
68072;SDS011;54862;51.502;7.446;2023-03-22T01:58:56;12.68;;;5.63;;
68072;SDS011;54862;51.502;7.446;2023-03-22T02:01:22;12.68;;;6.22;;
68072;SDS011;54862;51.502;7.446;2023-03-22T02:04:01;15.13;;;5.97;;
68072;SDS011;54862;51.502;7.446;2023-03-22T02:06:31;11.68;;;5.60;;
68072;SDS011;54862;51.502;7.446;2023-03-22T02:08:57;10.70;;;5.53;;
68072;SDS011;54862;51.502;7.446;2023-03-22T02:12:11;14.70;;;6.20;;
68072;SDS011;54862;51.502;7.446;2023-03-22T02:27:03;11.57;;;5.22;;
68072;SDS011;54862;51.502;7.446;2023-03-22T02:29:38;14.13;;;6.13;;
68072;SDS011;54862;51.502;7.446;2023-03-22T02:34:36;14.82;;;6.45;;
68072;SDS011;54862;51.502;7.446;2023-03-22T02:45:08;11.25;;;6.20;;
68072;SDS011;54862;51.502;7.446;2023-03-22T02:47:40;12.30;;;6.68;;
68072;SDS011;54862;51.502;7.446;2023-03-22T02:50:18;14.25;;;6.00;;
68072;SDS011;54862;51.502;7.446;2023-03-22T02:52:49;13.63;;;6.00;;
68072;SDS011;54862;51.502;7.446;2023-03-22T02:55:25;15.27;;;6.72;;
68072;SDS011;54862;51.502;7.446;2023-03-22T02:58:05;12.20;;;6.38;;
68072;SDS011;54862;51.502;7.446;2023-03-22T03:00:32;11.75;;;6.45;;
68072;SDS011;54862;51.502;7.446;2023-03-22T03:03:00;14.00;;;6.57;;
68072;SDS011;54862;51.502;7.446;2023-03-22T03:05:35;11.65;;;5.97;;
68072;SDS011;54862;51.502;7.446;2023-03-22T03:08:02;14.32;;;5.75;;
68072;SDS011;54862;51.502;7.446;2023-03-22T03:10:28;12.73;;;5.85;;
68072;SDS011;54862;51.502;7.446;2023-03-22T03:12:54;15.52;;;7.05;;
68072;SDS011;54862;51.502;7.446;2023-03-22T03:15:21;11.50;;;6.18;;
68072;SDS011;54862;51.502;7.446;2023-03-22T03:17:53;16.00;;;6.75;;
68072;SDS011;54862;51.502;7.446;2023-03-22T03:22:57;14.85;;;5.78;;
68072;SDS011;54862;51.502;7.446;2023-03-22T03:25:38;14.23;;;6.70;;
68072;SDS011;54862;51.502;7.446;2023-03-22T03:28:13;13.52;;;6.05;;
68072;SDS011;54862;51.502;7.446;2023-03-22T03:30:44;12.85;;;6.55;;
68072;SDS011;54862;51.502;7.446;2023-03-22T03:33:14;14.15;;;6.35;;
68072;SDS011;54862;51.502;7.446;2023-03-22T03:35:51;12.20;;;6.35;;
68072;SDS011;54862;51.502;7.446;2023-03-22T03:38:20;12.43;;;6.13;;
68072;SDS011;54862;51.502;7.446;2023-03-22T03:40:49;12.98;;;6.10;;
68072;SDS011;54862;51.502;7.446;2023-03-22T03:43:17;11.52;;;6.28;;
68072;SDS011;54862;51.502;7.446;2023-03-22T03:45:44;14.32;;;6.40;;
68072;SDS011;54862;51.502;7.446;2023-03-22T03:48:13;13.95;;;6.28;;
68072;SDS011;54862;51.502;7.446;2023-03-22T03:50:41;14.02;;;6.22;;
68072;SDS011;54862;51.502;7.446;2023-03-22T03:53:07;13.98;;;6.30;;
68072;SDS011;54862;51.502;7.446;2023-03-22T03:55:33;12.20;;;6.60;;
68072;SDS011;54862;51.502;7.446;2023-03-22T03:57:59;10.95;;;5.88;;
68072;SDS011;54862;51.502;7.446;2023-03-22T04:00:25;13.32;;;6.88;;
68072;SDS011;54862;51.502;7.446;2023-03-22T04:02:51;14.57;;;6.60;;
68072;SDS011;54862;51.502;7.446;2023-03-22T04:05:17;14.05;;;6.00;;
68072;SDS011;54862;51.502;7.446;2023-03-22T04:07:43;14.63;;;6.47;;
68072;SDS011;54862;51.502;7.446;2023-03-22T04:10:09;15.38;;;6.97;;
68072;SDS011;54862;51.502;7.446;2023-03-22T04:12:35;13.35;;;6.45;;
68072;SDS011;54862;51.502;7.446;2023-03-22T04:15:01;13.27;;;6.50;;
68072;SDS011;54862;51.502;7.446;2023-03-22T04:17:27;14.15;;;6.25;;
68072;SDS011;54862;51.502;7.446;2023-03-22T04:19:54;10.82;;;5.88;;
68072;SDS011;54862;51.502;7.446;2023-03-22T04:22:24;12.45;;;5.80;;
68072;SDS011;54862;51.502;7.446;2023-03-22T04:24:50;11.73;;;5.72;;
68072;SDS011;54862;51.502;7.446;2023-03-22T04:27:16;10.82;;;5.63;;
68072;SDS011;54862;51.502;7.446;2023-03-22T04:29:42;12.77;;;6.53;;
68072;SDS011;54862;51.502;7.446;2023-03-22T04:32:15;12.32;;;6.70;;
68072;SDS011;54862;51.502;7.446;2023-03-22T04:34:43;12.75;;;5.72;;
68072;SDS011;54862;51.502;7.446;2023-03-22T04:37:09;11.43;;;6.13;;
68072;SDS011;54862;51.502;7.446;2023-03-22T04:39:35;11.30;;;6.20;;
68072;SDS011;54862;51.502;7.446;2023-03-22T04:42:01;11.77;;;5.90;;
68072;SDS011;54862;51.502;7.446;2023-03-22T04:44:27;12.80;;;5.53;;
68072;SDS011;54862;51.502;7.446;2023-03-22T04:46:53;10.85;;;5.55;;
68072;SDS011;54862;51.502;7.446;2023-03-22T04:49:19;10.55;;;5.43;;
68072;SDS011;54862;51.502;7.446;2023-03-22T04:51:46;13.52;;;6.40;;
68072;SDS011;54862;51.502;7.446;2023-03-22T04:54:12;11.73;;;6.43;;
68072;SDS011;54862;51.502;7.446;2023-03-22T04:56:38;15.02;;;6.35;;
68072;SDS011;54862;51.502;7.446;2023-03-22T04:59:04;16.05;;;6.25;;
68072;SDS011;54862;51.502;7.446;2023-03-22T05:01:30;14.38;;;6.00;;
68072;SDS011;54862;51.502;7.446;2023-03-22T05:03:56;12.82;;;6.03;;
68072;SDS011;54862;51.502;7.446;2023-03-22T05:06:22;12.90;;;5.75;;
68072;SDS011;54862;51.502;7.446;2023-03-22T05:08:48;14.52;;;6.40;;
68072;SDS011;54862;51.502;7.446;2023-03-22T05:11:15;11.02;;;5.82;;
68072;SDS011;54862;51.502;7.446;2023-03-22T05:13:41;12.75;;;6.25;;
68072;SDS011;54862;51.502;7.446;2023-03-22T05:16:08;14.93;;;6.25;;
68072;SDS011;54862;51.502;7.446;2023-03-22T05:18:34;14.30;;;5.28;;
68072;SDS011;54862;51.502;7.446;2023-03-22T05:21:06;12.70;;;5.22;;
68072;SDS011;54862;51.502;7.446;2023-03-22T05:23:35;12.93;;;5.18;;
68072;SDS011;54862;51.502;7.446;2023-03-22T05:26:01;12.45;;;5.82;;
68072;SDS011;54862;51.502;7.446;2023-03-22T05:28:28;11.50;;;5.22;;
68072;SDS011;54862;51.502;7.446;2023-03-22T05:30:55;11.45;;;5.20;;
68072;SDS011;54862;51.502;7.446;2023-03-22T05:33:21;13.90;;;6.07;;
68072;SDS011;54862;51.502;7.446;2023-03-22T05:35:48;11.48;;;5.63;;
68072;SDS011;54862;51.502;7.446;2023-03-22T05:38:15;14.13;;;5.95;;
68072;SDS011;54862;51.502;7.446;2023-03-22T05:40:42;13.00;;;5.60;;
68072;SDS011;54862;51.502;7.446;2023-03-22T05:43:08;12.52;;;5.45;;
68072;SDS011;54862;51.502;7.446;2023-03-22T05:45:34;15.85;;;5.22;;
68072;SDS011;54862;51.502;7.446;2023-03-22T05:48:03;10.70;;;5.50;;
68072;SDS011;54862;51.502;7.446;2023-03-22T05:50:30;13.95;;;5.50;;
68072;SDS011;54862;51.502;7.446;2023-03-22T05:52:56;13.32;;;5.30;;
68072;SDS011;54862;51.502;7.446;2023-03-22T05:55:22;12.25;;;5.90;;
68072;SDS011;54862;51.502;7.446;2023-03-22T05:57:49;11.30;;;5.50;;
68072;SDS011;54862;51.502;7.446;2023-03-22T06:00:17;11.40;;;5.28;;
68072;SDS011;54862;51.502;7.446;2023-03-22T06:02:45;12.80;;;5.72;;
68072;SDS011;54862;51.502;7.446;2023-03-22T06:05:12;11.68;;;5.13;;
68072;SDS011;54862;51.502;7.446;2023-03-22T06:07:38;12.77;;;5.57;;
68072;SDS011;54862;51.502;7.446;2023-03-22T06:10:05;14.48;;;5.55;;
68072;SDS011;54862;51.502;7.446;2023-03-22T06:12:31;11.65;;;5.43;;
68072;SDS011;54862;51.502;7.446;2023-03-22T06:14:58;12.05;;;5.75;;
68072;SDS011;54862;51.502;7.446;2023-03-22T06:17:24;11.73;;;5.47;;
68072;SDS011;54862;51.502;7.446;2023-03-22T06:19:50;15.27;;;6.45;;
68072;SDS011;54862;51.502;7.446;2023-03-22T06:22:16;13.50;;;5.57;;
68072;SDS011;54862;51.502;7.446;2023-03-22T06:24:42;13.85;;;4.85;;
68072;SDS011;54862;51.502;7.446;2023-03-22T06:27:09;12.63;;;5.38;;
68072;SDS011;54862;51.502;7.446;2023-03-22T06:29:35;12.60;;;5.22;;
68072;SDS011;54862;51.502;7.446;2023-03-22T06:32:01;14.77;;;5.60;;
68072;SDS011;54862;51.502;7.446;2023-03-22T06:34:27;10.98;;;4.80;;
68072;SDS011;54862;51.502;7.446;2023-03-22T06:36:54;9.75;;;5.25;;
68072;SDS011;54862;51.502;7.446;2023-03-22T06:39:20;9.38;;;5.13;;
68072;SDS011;54862;51.502;7.446;2023-03-22T06:41:46;13.13;;;4.82;;
68072;SDS011;54862;51.502;7.446;2023-03-22T06:44:12;10.77;;;4.60;;
68072;SDS011;54862;51.502;7.446;2023-03-22T06:46:39;9.63;;;4.55;;
68072;SDS011;54862;51.502;7.446;2023-03-22T06:49:05;12.18;;;5.22;;
68072;SDS011;54862;51.502;7.446;2023-03-22T06:51:32;13.07;;;5.00;;
68072;SDS011;54862;51.502;7.446;2023-03-22T06:53:58;10.73;;;4.47;;
68072;SDS011;54862;51.502;7.446;2023-03-22T06:56:24;11.02;;;4.72;;
68072;SDS011;54862;51.502;7.446;2023-03-22T06:58:50;10.98;;;4.93;;
68072;SDS011;54862;51.502;7.446;2023-03-22T07:01:18;10.32;;;4.50;;
68072;SDS011;54862;51.502;7.446;2023-03-22T07:03:44;10.82;;;4.80;;
68072;SDS011;54862;51.502;7.446;2023-03-22T07:06:10;11.15;;;4.90;;
68072;SDS011;54862;51.502;7.446;2023-03-22T07:08:36;11.65;;;5.35;;
68072;SDS011;54862;51.502;7.446;2023-03-22T07:11:03;11.48;;;4.38;;
68072;SDS011;54862;51.502;7.446;2023-03-22T07:13:29;10.85;;;4.25;;
68072;SDS011;54862;51.502;7.446;2023-03-22T07:15:55;11.80;;;4.45;;
68072;SDS011;54862;51.502;7.446;2023-03-22T07:18:22;12.25;;;4.60;;
68072;SDS011;54862;51.502;7.446;2023-03-22T07:20:48;8.50;;;3.90;;
68072;SDS011;54862;51.502;7.446;2023-03-22T07:23:14;12.07;;;4.88;;
68072;SDS011;54862;51.502;7.446;2023-03-22T07:25:40;11.00;;;4.05;;
68072;SDS011;54862;51.502;7.446;2023-03-22T07:28:06;11.27;;;4.20;;
68072;SDS011;54862;51.502;7.446;2023-03-22T07:30:35;10.68;;;4.18;;
68072;SDS011;54862;51.502;7.446;2023-03-22T07:33:01;10.35;;;4.35;;
68072;SDS011;54862;51.502;7.446;2023-03-22T07:35:28;9.45;;;4.20;;
68072;SDS011;54862;51.502;7.446;2023-03-22T07:37:54;10.70;;;4.32;;
68072;SDS011;54862;51.502;7.446;2023-03-22T07:40:20;9.23;;;4.28;;
68072;SDS011;54862;51.502;7.446;2023-03-22T07:42:47;15.05;;;4.22;;
68072;SDS011;54862;51.502;7.446;2023-03-22T07:45:13;10.55;;;3.88;;
68072;SDS011;54862;51.502;7.446;2023-03-22T07:47:39;11.77;;;4.22;;
68072;SDS011;54862;51.502;7.446;2023-03-22T07:50:05;9.85;;;3.80;;
68072;SDS011;54862;51.502;7.446;2023-03-22T07:52:31;10.80;;;3.78;;
68072;SDS011;54862;51.502;7.446;2023-03-22T07:54:57;11.05;;;3.53;;
68072;SDS011;54862;51.502;7.446;2023-03-22T07:57:23;8.13;;;3.80;;
68072;SDS011;54862;51.502;7.446;2023-03-22T07:59:50;8.32;;;3.58;;
68072;SDS011;54862;51.502;7.446;2023-03-22T08:02:16;12.35;;;3.75;;
68072;SDS011;54862;51.502;7.446;2023-03-22T08:04:42;9.30;;;3.90;;
68072;SDS011;54862;51.502;7.446;2023-03-22T08:07:08;9.05;;;3.17;;
68072;SDS011;54862;51.502;7.446;2023-03-22T08:09:36;9.25;;;3.45;;
68072;SDS011;54862;51.502;7.446;2023-03-22T08:12:05;9.90;;;3.80;;
68072;SDS011;54862;51.502;7.446;2023-03-22T08:14:31;12.02;;;3.70;;
68072;SDS011;54862;51.502;7.446;2023-03-22T08:16:58;9.90;;;3.10;;
68072;SDS011;54862;51.502;7.446;2023-03-22T08:19:24;8.00;;;3.20;;
68072;SDS011;54862;51.502;7.446;2023-03-22T08:21:51;6.75;;;3.00;;
68072;SDS011;54862;51.502;7.446;2023-03-22T08:24:17;7.97;;;2.78;;
68072;SDS011;54862;51.502;7.446;2023-03-22T08:26:42;11.10;;;2.95;;
68072;SDS011;54862;51.502;7.446;2023-03-22T08:29:09;11.60;;;2.58;;
68072;SDS011;54862;51.502;7.446;2023-03-22T08:31:35;6.40;;;2.30;;
68072;SDS011;54862;51.502;7.446;2023-03-22T08:34:01;9.95;;;2.70;;
68072;SDS011;54862;51.502;7.446;2023-03-22T08:36:27;12.13;;;2.90;;
68072;SDS011;54862;51.502;7.446;2023-03-22T08:38:53;9.23;;;2.40;;
68072;SDS011;54862;51.502;7.446;2023-03-22T08:41:20;5.32;;;2.15;;
68072;SDS011;54862;51.502;7.446;2023-03-22T08:43:47;8.75;;;2.40;;
68072;SDS011;54862;51.502;7.446;2023-03-22T08:46:13;5.82;;;2.25;;
68072;SDS011;54862;51.502;7.446;2023-03-22T08:48:39;5.90;;;2.20;;
68072;SDS011;54862;51.502;7.446;2023-03-22T08:51:05;5.53;;;2.35;;
68072;SDS011;54862;51.502;7.446;2023-03-22T08:53:31;7.03;;;2.63;;
68072;SDS011;54862;51.502;7.446;2023-03-22T08:55:57;5.63;;;2.42;;
68072;SDS011;54862;51.502;7.446;2023-03-22T08:58:25;5.72;;;2.28;;
68072;SDS011;54862;51.502;7.446;2023-03-22T09:00:52;8.93;;;2.72;;
68072;SDS011;54862;51.502;7.446;2023-03-22T09:03:18;5.88;;;2.22;;
68072;SDS011;54862;51.502;7.446;2023-03-22T09:05:44;6.30;;;2.60;;
68072;SDS011;54862;51.502;7.446;2023-03-22T09:08:10;8.48;;;2.50;;
68072;SDS011;54862;51.502;7.446;2023-03-22T09:10:37;9.27;;;2.45;;
68072;SDS011;54862;51.502;7.446;2023-03-22T09:13:03;6.93;;;2.30;;
68072;SDS011;54862;51.502;7.446;2023-03-22T09:15:30;7.72;;;2.42;;
68072;SDS011;54862;51.502;7.446;2023-03-22T09:17:56;7.03;;;2.70;;
68072;SDS011;54862;51.502;7.446;2023-03-22T09:20:22;6.80;;;2.35;;
68072;SDS011;54862;51.502;7.446;2023-03-22T09:22:50;8.68;;;2.75;;
68072;SDS011;54862;51.502;7.446;2023-03-22T09:25:16;5.22;;;2.53;;
68072;SDS011;54862;51.502;7.446;2023-03-22T09:27:42;6.90;;;2.38;;
68072;SDS011;54862;51.502;7.446;2023-03-22T09:30:08;6.55;;;3.05;;
68072;SDS011;54862;51.502;7.446;2023-03-22T09:32:35;7.45;;;2.90;;
68072;SDS011;54862;51.502;7.446;2023-03-22T09:35:01;7.07;;;2.72;;
68072;SDS011;54862;51.502;7.446;2023-03-22T09:37:27;6.68;;;3.17;;
68072;SDS011;54862;51.502;7.446;2023-03-22T09:39:54;10.10;;;3.30;;
68072;SDS011;54862;51.502;7.446;2023-03-22T09:42:29;7.93;;;3.33;;
68072;SDS011;54862;51.502;7.446;2023-03-22T09:44:56;7.05;;;2.80;;
68072;SDS011;54862;51.502;7.446;2023-03-22T09:50:19;7.60;;;3.10;;
68072;SDS011;54862;51.502;7.446;2023-03-22T09:52:45;8.02;;;3.33;;
68072;SDS011;54862;51.502;7.446;2023-03-22T09:55:18;7.45;;;3.30;;
68072;SDS011;54862;51.502;7.446;2023-03-22T09:57:48;7.97;;;2.97;;
68072;SDS011;54862;51.502;7.446;2023-03-22T10:00:37;6.22;;;2.75;;
68072;SDS011;54862;51.502;7.446;2023-03-22T10:08:02;5.60;;;2.45;;
68072;SDS011;54862;51.502;7.446;2023-03-22T10:10:30;7.25;;;2.53;;
68072;SDS011;54862;51.502;7.446;2023-03-22T10:12:59;5.32;;;2.38;;
68072;SDS011;54862;51.502;7.446;2023-03-22T10:17:57;9.93;;;2.92;;
68072;SDS011;54862;51.502;7.446;2023-03-22T10:22:56;10.63;;;2.45;;
68072;SDS011;54862;51.502;7.446;2023-03-22T10:25:29;6.32;;;2.45;;
68072;SDS011;54862;51.502;7.446;2023-03-22T10:27:57;5.60;;;2.30;;
68072;SDS011;54862;51.502;7.446;2023-03-22T10:30:25;5.65;;;2.40;;
68072;SDS011;54862;51.502;7.446;2023-03-22T10:32:59;6.82;;;2.30;;
68072;SDS011;54862;51.502;7.446;2023-03-22T10:35:26;7.28;;;2.20;;
68072;SDS011;54862;51.502;7.446;2023-03-22T10:37:53;5.68;;;2.15;;
68072;SDS011;54862;51.502;7.446;2023-03-22T10:40:29;4.28;;;2.20;;
68072;SDS011;54862;51.502;7.446;2023-03-22T10:42:58;4.82;;;2.03;;
68072;SDS011;54862;51.502;7.446;2023-03-22T10:45:25;5.63;;;2.20;;
68072;SDS011;54862;51.502;7.446;2023-03-22T10:47:57;7.38;;;2.30;;
68072;SDS011;54862;51.502;7.446;2023-03-22T10:50:34;5.85;;;2.47;;
68072;SDS011;54862;51.502;7.446;2023-03-22T10:55:45;5.05;;;2.42;;
68072;SDS011;54862;51.502;7.446;2023-03-22T11:00:37;6.63;;;2.40;;
68072;SDS011;54862;51.502;7.446;2023-03-22T11:03:04;4.70;;;2.00;;
68072;SDS011;54862;51.502;7.446;2023-03-22T11:05:30;4.53;;;1.98;;
68072;SDS011;54862;51.502;7.446;2023-03-22T11:07:57;7.28;;;2.20;;
68072;SDS011;54862;51.502;7.446;2023-03-22T11:10:24;6.13;;;1.80;;
68072;SDS011;54862;51.502;7.446;2023-03-22T11:15:32;4.55;;;1.77;;
68072;SDS011;54862;51.502;7.446;2023-03-22T11:18:01;7.18;;;1.80;;
68072;SDS011;54862;51.502;7.446;2023-03-22T11:20:27;5.10;;;1.92;;
68072;SDS011;54862;51.502;7.446;2023-03-22T11:22:53;3.05;;;1.70;;
68072;SDS011;54862;51.502;7.446;2023-03-22T11:27:52;4.65;;;1.90;;
68072;SDS011;54862;51.502;7.446;2023-03-22T11:30:25;5.57;;;1.90;;
68072;SDS011;54862;51.502;7.446;2023-03-22T11:32:59;6.65;;;1.90;;
68072;SDS011;54862;51.502;7.446;2023-03-22T11:35:25;4.47;;;1.60;;
68072;SDS011;54862;51.502;7.446;2023-03-22T11:37:54;2.90;;;1.70;;
68072;SDS011;54862;51.502;7.446;2023-03-22T11:40:24;7.63;;;1.88;;
68072;SDS011;54862;51.502;7.446;2023-03-22T11:42:52;6.18;;;1.75;;
68072;SDS011;54862;51.502;7.446;2023-03-22T11:45:28;4.55;;;1.63;;
68072;SDS011;54862;51.502;7.446;2023-03-22T11:48:03;5.53;;;1.75;;
68072;SDS011;54862;51.502;7.446;2023-03-22T11:50:31;5.50;;;1.73;;
68072;SDS011;54862;51.502;7.446;2023-03-22T11:53:03;6.28;;;1.70;;
68072;SDS011;54862;51.502;7.446;2023-03-22T11:55:36;5.35;;;1.90;;
68072;SDS011;54862;51.502;7.446;2023-03-22T11:58:02;6.32;;;1.58;;
68072;SDS011;54862;51.502;7.446;2023-03-22T12:00:29;4.60;;;1.98;;
68072;SDS011;54862;51.502;7.446;2023-03-22T12:02:59;5.50;;;1.90;;
68072;SDS011;54862;51.502;7.446;2023-03-22T12:05:27;7.03;;;1.92;;
68072;SDS011;54862;51.502;7.446;2023-03-22T12:07:55;5.78;;;2.08;;
68072;SDS011;54862;51.502;7.446;2023-03-22T12:10:31;3.88;;;1.60;;
68072;SDS011;54862;51.502;7.446;2023-03-22T12:13:03;6.38;;;1.83;;
68072;SDS011;54862;51.502;7.446;2023-03-22T12:15:32;3.53;;;1.90;;
68072;SDS011;54862;51.502;7.446;2023-03-22T12:20:30;4.38;;;1.70;;
68072;SDS011;54862;51.502;7.446;2023-03-22T12:22:58;6.15;;;1.80;;
68072;SDS011;54862;51.502;7.446;2023-03-22T12:25:30;3.45;;;1.65;;
68072;SDS011;54862;51.502;7.446;2023-03-22T12:27:58;6.97;;;1.77;;
68072;SDS011;54862;51.502;7.446;2023-03-22T12:30:29;2.78;;;1.70;;
68072;SDS011;54862;51.502;7.446;2023-03-22T12:33:03;7.38;;;1.70;;
68072;SDS011;54862;51.502;7.446;2023-03-22T12:35:32;4.18;;;1.60;;
68072;SDS011;54862;51.502;7.446;2023-03-22T12:38:00;4.80;;;1.70;;
68072;SDS011;54862;51.502;7.446;2023-03-22T12:40:34;5.45;;;1.73;;
68072;SDS011;54862;51.502;7.446;2023-03-22T12:45:55;3.75;;;1.77;;
68072;SDS011;54862;51.502;7.446;2023-03-22T12:50:54;6.88;;;2.05;;
68072;SDS011;54862;51.502;7.446;2023-03-22T12:53:21;4.23;;;1.90;;
68072;SDS011;54862;51.502;7.446;2023-03-22T12:55:50;4.85;;;1.80;;
68072;SDS011;54862;51.502;7.446;2023-03-22T12:58:20;3.80;;;1.80;;
68072;SDS011;54862;51.502;7.446;2023-03-22T13:00:54;5.22;;;1.88;;
68072;SDS011;54862;51.502;7.446;2023-03-22T13:03:26;7.55;;;1.90;;
68072;SDS011;54862;51.502;7.446;2023-03-22T13:05:58;4.70;;;1.80;;
68072;SDS011;54862;51.502;7.446;2023-03-22T13:08:24;2.38;;;1.58;;
68072;SDS011;54862;51.502;7.446;2023-03-22T13:18:28;4.47;;;1.80;;
68072;SDS011;54862;51.502;7.446;2023-03-22T13:21:13;2.40;;;1.55;;
68072;SDS011;54862;51.502;7.446;2023-03-22T13:23:52;4.13;;;1.88;;
68072;SDS011;54862;51.502;7.446;2023-03-22T13:26:19;5.57;;;2.10;;
68072;SDS011;54862;51.502;7.446;2023-03-22T13:28:57;3.63;;;1.85;;
68072;SDS011;54862;51.502;7.446;2023-03-22T13:31:33;6.18;;;1.90;;
68072;SDS011;54862;51.502;7.446;2023-03-22T13:34:00;6.00;;;2.03;;
68072;SDS011;54862;51.502;7.446;2023-03-22T13:36:28;3.22;;;1.83;;
68072;SDS011;54862;51.502;7.446;2023-03-22T13:38:56;3.78;;;1.60;;
68072;SDS011;54862;51.502;7.446;2023-03-22T13:43:50;4.55;;;1.83;;
68072;SDS011;54862;51.502;7.446;2023-03-22T13:53:48;6.65;;;1.92;;
68072;SDS011;54862;51.502;7.446;2023-03-22T13:58:54;6.10;;;1.92;;
68072;SDS011;54862;51.502;7.446;2023-03-22T14:01:27;6.80;;;2.20;;
68072;SDS011;54862;51.502;7.446;2023-03-22T14:03:55;5.63;;;2.42;;
68072;SDS011;54862;51.502;7.446;2023-03-22T14:06:23;4.85;;;1.75;;
68072;SDS011;54862;51.502;7.446;2023-03-22T14:08:52;4.28;;;1.80;;
68072;SDS011;54862;51.502;7.446;2023-03-22T14:11:27;7.18;;;1.95;;
68072;SDS011;54862;51.502;7.446;2023-03-22T14:14:05;5.88;;;1.65;;
68072;SDS011;54862;51.502;7.446;2023-03-22T14:19:13;2.83;;;1.58;;
68072;SDS011;54862;51.502;7.446;2023-03-22T14:21:41;6.05;;;1.90;;
68072;SDS011;54862;51.502;7.446;2023-03-22T14:24:11;5.15;;;2.03;;
68072;SDS011;54862;51.502;7.446;2023-03-22T14:26:39;8.55;;;1.95;;
68072;SDS011;54862;51.502;7.446;2023-03-22T14:29:16;5.47;;;1.85;;
68072;SDS011;54862;51.502;7.446;2023-03-22T14:31:42;4.07;;;1.92;;
68072;SDS011;54862;51.502;7.446;2023-03-22T14:34:15;5.50;;;1.77;;
68072;SDS011;54862;51.502;7.446;2023-03-22T14:36:43;4.80;;;1.73;;
68072;SDS011;54862;51.502;7.446;2023-03-22T14:39:19;5.93;;;1.80;;
68072;SDS011;54862;51.502;7.446;2023-03-22T14:41:55;5.72;;;1.83;;
68072;SDS011;54862;51.502;7.446;2023-03-22T14:44:22;8.27;;;2.00;;
68072;SDS011;54862;51.502;7.446;2023-03-22T14:46:48;4.53;;;2.20;;
68072;SDS011;54862;51.502;7.446;2023-03-22T14:49:15;8.48;;;2.00;;
68072;SDS011;54862;51.502;7.446;2023-03-22T14:51:43;3.47;;;1.67;;
68072;SDS011;54862;51.502;7.446;2023-03-22T14:54:14;5.97;;;2.00;;
68072;SDS011;54862;51.502;7.446;2023-03-22T14:56:42;5.32;;;1.83;;
68072;SDS011;54862;51.502;7.446;2023-03-22T14:59:12;5.35;;;1.98;;
68072;SDS011;54862;51.502;7.446;2023-03-22T15:01:41;4.53;;;1.95;;
68072;SDS011;54862;51.502;7.446;2023-03-22T15:04:08;7.50;;;2.10;;
68072;SDS011;54862;51.502;7.446;2023-03-22T15:06:42;4.45;;;1.80;;
68072;SDS011;54862;51.502;7.446;2023-03-22T15:09:09;3.75;;;1.98;;
68072;SDS011;54862;51.502;7.446;2023-03-22T15:11:36;6.30;;;2.05;;
68072;SDS011;54862;51.502;7.446;2023-03-22T15:14:04;7.57;;;2.00;;
68072;SDS011;54862;51.502;7.446;2023-03-22T15:16:32;6.22;;;2.03;;
68072;SDS011;54862;51.502;7.446;2023-03-22T15:18:59;5.22;;;1.90;;
68072;SDS011;54862;51.502;7.446;2023-03-22T15:21:26;4.47;;;1.85;;
68072;SDS011;54862;51.502;7.446;2023-03-22T15:23:53;8.13;;;2.17;;
68072;SDS011;54862;51.502;7.446;2023-03-22T15:26:20;5.22;;;2.20;;
68072;SDS011;54862;51.502;7.446;2023-03-22T15:28:59;6.25;;;2.13;;
68072;SDS011;54862;51.502;7.446;2023-03-22T15:31:32;4.03;;;1.80;;
68072;SDS011;54862;51.502;7.446;2023-03-22T15:33:59;5.28;;;1.92;;
68072;SDS011;54862;51.502;7.446;2023-03-22T15:36:30;6.10;;;2.30;;
68072;SDS011;54862;51.502;7.446;2023-03-22T15:38:59;4.22;;;1.92;;
68072;SDS011;54862;51.502;7.446;2023-03-22T15:42:12;9.70;;;2.20;;
68072;SDS011;54862;51.502;7.446;2023-03-22T15:44:20;7.30;;;1.95;;
68072;SDS011;54862;51.502;7.446;2023-03-22T15:46:51;4.82;;;2.13;;
68072;SDS011;54862;51.502;7.446;2023-03-22T15:51:47;4.97;;;2.10;;
68072;SDS011;54862;51.502;7.446;2023-03-22T15:54:14;4.15;;;1.90;;
68072;SDS011;54862;51.502;7.446;2023-03-22T15:56:45;6.28;;;2.40;;
68072;SDS011;54862;51.502;7.446;2023-03-22T15:59:20;5.80;;;1.98;;
68072;SDS011;54862;51.502;7.446;2023-03-22T16:01:47;3.50;;;2.00;;
68072;SDS011;54862;51.502;7.446;2023-03-22T16:04:21;9.05;;;2.47;;
68072;SDS011;54862;51.502;7.446;2023-03-22T16:06:47;8.02;;;2.90;;
68072;SDS011;54862;51.502;7.446;2023-03-22T16:09:14;5.40;;;1.90;;
68072;SDS011;54862;51.502;7.446;2023-03-22T16:11:40;6.85;;;2.00;;